powered by Meteolive.it
Dati meteo   Attuali  Passati Ogni 3 ore 7 Giorni 15 Giorni Avvisi Meteo Mappe meteo
Roma / Urbe, Italy
Alba: 4:48 AM UTC1
Tramonto: 7:41 PM UTC1
 Lat: 41.95N, Lon: 12.50E
ICAO Usato: LIRU
Condizioni Meteo Attuali Aggiornate: 12.07.2018 alle 15:50 LT
Parz Nuvoloso
Parz Nuvoloso
Parz Nuvoloso
N/D
Temp: 31°C
Umidita': 41%
Direz/Vel. Vento: S 05 KTS raffiche
Pressione: 1015 hPa
Punto di rugiada: 16°C
Temperatura percepita: 31°C
Visibilitą: >10 KM (ottima)
Temperatura percepita in
presenza di vento (Wind Chill)
:
N/D
T. max (ultime 24 ore): 31°C
T. min (ultime 24 ore): 24°C


METAR ORIGINALE
LIRU 121150Z 18005KT 9999 SCT030 31/16 Q1015